createdAt,value
2022-11-13T00:02:54.121Z,130.73
2022-11-13T00:06:01.158Z,119.70
2022-11-13T00:09:12.005Z,125.97
2022-11-13T00:12:18.453Z,124.80
2022-11-13T00:15:26.355Z,124.73
2022-11-13T00:18:35.664Z,120.43
2022-11-13T00:21:42.349Z,113.97
2022-11-13T00:24:49.976Z,121.37
2022-11-13T00:27:56.318Z,136.20
2022-11-13T00:31:04.009Z,121.20
2022-11-13T00:34:41.108Z,123.63
2022-11-13T00:37:37.977Z,118.50
2022-11-13T00:40:45.937Z,119.17
2022-11-13T00:43:52.836Z,123.10
2022-11-13T00:46:59.531Z,124.43
2022-11-13T00:50:06.675Z,124.70
2022-11-13T00:53:17.900Z,121.73
2022-11-13T00:56:26.039Z,149.93
2022-11-13T00:59:32.676Z,133.20
2022-11-13T01:02:39.113Z,132.70
2022-11-13T01:05:47.740Z,127.87
2022-11-13T01:08:55.757Z,128.97
2022-11-13T01:12:03.834Z,143.47
2022-11-13T01:15:10.970Z,125.37
2022-11-13T01:18:17.464Z,119.07
2022-11-13T01:21:26.311Z,135.30
2022-11-13T01:24:33.068Z,128.50
2022-11-13T01:27:41.090Z,129.43
2022-11-13T01:30:47.565Z,134.00
2022-11-13T01:33:54.385Z,128.53
2022-11-13T01:37:01.122Z,153.23
2022-11-13T01:40:08.607Z,144.47
2022-11-13T01:43:27.289Z,136.63
2022-11-13T01:46:34.859Z,125.27
2022-11-13T01:49:44.714Z,131.80
2022-11-13T01:52:50.996Z,126.87
2022-11-13T01:55:57.561Z,125.37
2022-11-13T01:59:09.833Z,118.23
2022-11-13T02:02:16.928Z,133.00
2022-11-13T02:05:23.386Z,133.30
2022-11-13T02:08:31.509Z,144.37
2022-11-13T02:11:39.823Z,130.90
2022-11-13T02:14:52.593Z,148.37
2022-11-13T02:18:01.981Z,133.50
2022-11-13T02:21:21.631Z,139.47
2022-11-13T02:24:35.049Z,128.07
2022-11-13T02:27:46.248Z,136.80
2022-11-13T02:30:52.682Z,142.43
2022-11-13T02:33:59.060Z,129.30
2022-11-13T02:37:05.332Z,132.90
2022-11-13T02:40:14.307Z,131.50
2022-11-13T02:43:20.654Z,129.77
2022-11-13T02:46:26.995Z,132.07
2022-11-13T02:49:33.776Z,133.70
2022-11-13T02:52:40.554Z,129.50
2022-11-13T02:55:48.292Z,131.80
2022-11-13T02:58:55.219Z,133.80
2022-11-13T03:02:02.001Z,132.93
2022-11-13T03:05:13.548Z,111.10
2022-11-13T03:08:20.755Z,132.57
2022-11-13T03:11:28.864Z,116.90
2022-11-13T03:14:35.232Z,125.37
2022-11-13T03:17:41.566Z,135.10
2022-11-13T03:20:53.766Z,127.33
2022-11-13T03:24:00.412Z,116.33
2022-11-13T03:27:08.171Z,119.83
2022-11-13T03:30:14.798Z,121.20
2022-11-13T03:33:21.169Z,126.10
2022-11-13T03:36:27.582Z,107.10
2022-11-13T03:39:33.889Z,119.27
2022-11-13T03:42:41.682Z,103.77
2022-11-13T03:45:48.671Z,109.53
2022-11-13T03:48:55.274Z,104.43
2022-11-13T03:52:01.811Z,100.87
2022-11-13T03:55:08.984Z,104.73
2022-11-13T03:58:17.123Z,105.40
2022-11-13T04:01:24.058Z,107.13
2022-11-13T04:04:30.688Z,111.63
2022-11-13T04:07:37.148Z,110.37
2022-11-13T04:10:44.113Z,116.03
2022-11-13T04:13:51.891Z,99.07
2022-11-13T04:16:58.679Z,92.10
2022-11-13T04:20:06.421Z,100.10
2022-11-13T04:23:14.229Z,101.63
2022-11-13T04:26:21.012Z,87.73
2022-11-13T04:29:28.787Z,95.47
2022-11-13T04:32:35.289Z,96.07
2022-11-13T04:35:45.558Z,95.07
2022-11-13T04:38:52.416Z,91.30
2022-11-13T04:42:16.531Z,88.20
2022-11-13T04:45:27.389Z,85.80
2022-11-13T04:48:33.859Z,87.07
2022-11-13T04:51:40.375Z,88.87
2022-11-13T04:54:46.809Z,91.27
2022-11-13T04:57:55.478Z,93.87
2022-11-13T05:01:04.024Z,96.43
2022-11-13T05:04:11.943Z,90.33
2022-11-13T05:07:18.660Z,84.47
2022-11-13T05:10:25.083Z,85.00
2022-11-13T05:13:32.747Z,86.07
2022-11-13T05:16:41.121Z,90.67
2022-11-13T05:19:47.486Z,87.77
2022-11-13T05:22:53.973Z,87.33
2022-11-13T05:26:05.323Z,88.27
2022-11-13T05:29:12.083Z,81.93
2022-11-13T05:32:19.851Z,91.87
2022-11-13T05:35:26.307Z,78.37
2022-11-13T05:38:33.385Z,84.13
2022-11-13T05:41:39.906Z,84.97
2022-11-13T05:44:46.450Z,90.60
2022-11-13T05:47:54.541Z,82.13
2022-11-13T05:51:05.045Z,88.10
2022-11-13T05:54:11.930Z,93.27
2022-11-13T05:57:18.736Z,92.57
2022-11-13T06:00:25.156Z,84.00
2022-11-13T06:03:33.038Z,78.17
2022-11-13T06:06:39.677Z,77.33
2022-11-13T06:09:46.227Z,76.93
2022-11-13T06:12:52.735Z,73.57
2022-11-13T06:16:02.441Z,91.20
2022-11-13T06:19:11.687Z,81.93
2022-11-13T06:22:18.186Z,71.37
2022-11-13T06:25:24.793Z,76.23
2022-11-13T06:28:31.899Z,84.03
2022-11-13T06:31:38.903Z,78.40
2022-11-13T06:34:46.691Z,76.30
2022-11-13T06:37:55.056Z,78.10
2022-11-13T06:41:02.429Z,81.17
2022-11-13T06:44:09.009Z,76.53
2022-11-13T06:47:16.167Z,84.87
2022-11-13T06:50:24.134Z,74.73
2022-11-13T06:53:30.873Z,73.30
2022-11-13T06:56:37.576Z,80.03
2022-11-13T06:59:44.575Z,83.50
2022-11-13T07:02:51.287Z,77.23
2022-11-13T07:05:38.843Z,86.37
2022-11-13T07:08:25.164Z,78.10
2022-11-13T07:11:13.371Z,79.87
2022-11-13T07:13:59.543Z,77.37
2022-11-13T07:17:07.903Z,87.43
2022-11-13T07:19:52.277Z,76.27
2022-11-13T07:22:40.048Z,80.27
2022-11-13T07:25:27.238Z,77.80
2022-11-13T07:28:13.250Z,79.77
2022-11-13T07:31:00.083Z,80.97
2022-11-13T07:33:49.319Z,81.33
2022-11-13T07:36:35.642Z,83.47
2022-11-13T07:39:23.040Z,94.30
2022-11-13T07:42:09.690Z,92.90
2022-11-13T07:44:56.368Z,80.67
2022-11-13T07:47:42.762Z,95.27
2022-11-13T07:50:30.182Z,103.20
2022-11-13T07:53:17.358Z,95.33
2022-11-13T07:56:05.643Z,97.30
2022-11-13T07:58:51.981Z,99.43
2022-11-13T08:01:38.438Z,97.37
2022-11-13T08:04:24.572Z,104.23
2022-11-13T08:07:12.253Z,105.70
2022-11-13T08:09:58.485Z,101.33
2022-11-13T08:12:46.417Z,104.00
2022-11-13T08:15:33.890Z,111.90
2022-11-13T08:18:20.324Z,103.50
2022-11-13T08:21:11.917Z,91.87
2022-11-13T08:24:00.888Z,94.37
2022-11-13T08:26:47.245Z,101.07
2022-11-13T08:29:37.160Z,111.40
2022-11-13T08:32:23.676Z,110.30
2022-11-13T08:35:10.598Z,112.83
2022-11-13T08:38:02.987Z,119.30
2022-11-13T08:40:49.313Z,111.43
2022-11-13T08:43:35.901Z,115.17
2022-11-13T08:46:23.613Z,114.00
2022-11-13T08:49:09.992Z,124.87
2022-11-13T08:51:56.442Z,120.13
2022-11-13T08:54:43.143Z,103.80
2022-11-13T08:57:29.338Z,128.20
2022-11-13T09:00:16.613Z,124.87
2022-11-13T09:03:04.667Z,127.90
2022-11-13T09:05:50.827Z,124.63
2022-11-13T09:08:37.278Z,123.27
2022-11-13T09:11:23.571Z,131.30
2022-11-13T09:14:09.851Z,131.80
2022-11-13T09:16:56.293Z,124.83
2022-11-13T09:19:44.278Z,128.00
2022-11-13T09:22:30.559Z,133.57
2022-11-13T09:25:17.204Z,139.13
2022-11-13T09:28:04.818Z,147.33
2022-11-13T09:30:50.913Z,134.90
2022-11-13T09:33:37.667Z,144.17
2022-11-13T09:36:25.396Z,150.20
2022-11-13T09:39:11.718Z,143.80
2022-11-13T09:42:03.627Z,155.33
2022-11-13T09:44:53.826Z,149.17
2022-11-13T09:47:45.138Z,147.67
2022-11-13T09:50:33.319Z,147.73
2022-11-13T09:53:22.105Z,164.73
2022-11-13T09:56:26.417Z,164.07
2022-11-13T09:59:22.339Z,153.80
2022-11-13T10:02:18.995Z,168.87
2022-11-13T10:05:12.381Z,163.57
2022-11-13T10:08:08.140Z,170.30
2022-11-13T10:11:03.700Z,174.63
2022-11-13T10:13:53.154Z,177.80
2022-11-13T10:16:44.884Z,173.33
2022-11-13T10:19:39.013Z,176.23
2022-11-13T10:22:33.428Z,186.30
2022-11-13T10:25:22.980Z,181.70
2022-11-13T10:31:24.656Z,168.23
2022-11-13T10:34:12.039Z,169.07
2022-11-13T10:37:18.116Z,184.23
2022-11-13T10:40:05.303Z,165.43
2022-11-13T10:42:51.858Z,157.63
2022-11-13T10:45:39.992Z,167.43
2022-11-13T10:48:29.446Z,178.43
2022-11-13T10:51:25.540Z,176.60
2022-11-13T10:54:24.391Z,173.20
2022-11-13T10:57:25.014Z,167.27
2022-11-13T11:00:31.783Z,192.97
2022-11-13T11:03:21.196Z,178.17
2022-11-13T11:06:08.196Z,179.47
2022-11-13T11:08:54.435Z,176.97
2022-11-13T11:11:58.535Z,204.67
2022-11-13T11:15:07.424Z,185.97
2022-11-13T11:17:58.679Z,186.30
2022-11-13T11:20:50.739Z,196.40
2022-11-13T11:23:44.019Z,187.50
2022-11-13T11:26:34.857Z,189.23
2022-11-13T11:29:29.358Z,195.27
2022-11-13T11:32:23.895Z,204.83
2022-11-13T11:35:16.797Z,209.60
2022-11-13T11:38:12.699Z,209.57
2022-11-13T11:41:07.654Z,197.63
2022-11-13T11:44:05.179Z,199.27
2022-11-13T11:46:51.390Z,215.73
2022-11-13T11:49:37.679Z,206.93
2022-11-13T11:52:38.767Z,202.23
2022-11-13T11:55:43.999Z,192.47
2022-11-13T11:58:44.311Z,199.47
2022-11-13T12:01:47.298Z,214.47
2022-11-13T12:04:47.825Z,194.47
2022-11-13T12:07:42.746Z,206.10
2022-11-13T12:10:39.502Z,215.50
2022-11-13T12:13:31.357Z,219.87
2022-11-13T12:16:25.569Z,206.83
2022-11-13T12:19:23.134Z,215.30
2022-11-13T12:22:18.741Z,202.30
2022-11-13T12:25:15.743Z,205.87
2022-11-13T12:28:15.553Z,199.97
2022-11-13T12:31:10.391Z,201.63
2022-11-13T12:34:05.514Z,203.63
2022-11-13T12:36:53.763Z,220.27
2022-11-13T12:39:48.584Z,220.37
2022-11-13T12:42:40.951Z,208.90
2022-11-13T12:45:42.638Z,213.90
2022-11-13T12:48:34.636Z,219.30
2022-11-13T12:51:21.141Z,235.83
2022-11-13T12:54:10.620Z,218.80
2022-11-13T12:57:09.040Z,223.37
2022-11-13T12:59:56.575Z,220.60
2022-11-13T13:02:56.822Z,210.77
2022-11-13T13:06:05.677Z,215.27
2022-11-13T13:09:14.608Z,228.47
2022-11-13T13:12:07.818Z,229.53
2022-11-13T13:15:13.013Z,228.70
2022-11-13T13:18:10.860Z,244.47
2022-11-13T13:21:06.244Z,255.20
2022-11-13T13:23:54.127Z,244.15
2022-11-13T13:26:46.319Z,238.82
2022-11-13T13:29:34.447Z,268.63
2022-11-13T13:32:24.462Z,267.90
2022-11-13T13:35:16.322Z,256.02
2022-11-13T13:38:11.235Z,246.02
2022-11-13T13:41:15.420Z,258.38
2022-11-13T13:44:19.695Z,256.00
2022-11-13T13:47:13.441Z,274.20
2022-11-13T13:49:59.955Z,258.52
2022-11-13T13:52:54.257Z,277.42
2022-11-13T13:55:48.068Z,285.13
2022-11-13T13:58:37.701Z,276.80
2022-11-13T14:01:29.535Z,238.90
2022-11-13T14:04:19.671Z,260.88
2022-11-13T14:07:19.506Z,257.45
2022-11-13T14:10:09.664Z,257.10
2022-11-13T14:12:57.036Z,278.02
2022-11-13T14:15:43.556Z,261.70
2022-11-13T14:18:30.175Z,251.05
2022-11-13T14:21:20.657Z,282.13
2022-11-13T14:24:15.066Z,284.13
2022-11-13T14:27:07.279Z,282.17
2022-11-13T14:29:56.569Z,284.67
2022-11-13T14:32:46.969Z,288.23
2022-11-13T14:35:34.117Z,285.27
2022-11-13T14:38:22.918Z,288.90
2022-11-13T14:41:20.945Z,278.50
2022-11-13T14:44:11.526Z,266.95
2022-11-13T14:47:02.902Z,285.52
2022-11-13T14:49:49.423Z,267.80
2022-11-13T14:52:36.734Z,288.58
2022-11-13T14:55:25.565Z,261.42
2022-11-13T14:58:14.672Z,269.08
2022-11-13T15:01:14.909Z,261.65
2022-11-13T15:04:01.002Z,264.95
2022-11-13T15:06:48.548Z,256.48
2022-11-13T15:09:35.557Z,261.00
2022-11-13T15:12:21.958Z,280.05
2022-11-13T15:15:14.301Z,260.88
2022-11-13T15:18:03.141Z,267.13
2022-11-13T15:20:49.570Z,259.02
2022-11-13T15:23:35.982Z,249.85
2022-11-13T15:26:22.491Z,267.63
2022-11-13T15:29:08.740Z,257.47
2022-11-13T15:31:55.501Z,251.02
2022-11-13T15:34:43.248Z,235.32
2022-11-13T15:37:29.457Z,265.77
2022-11-13T15:40:16.808Z,253.75
2022-11-13T15:43:04.206Z,252.75
2022-11-13T15:45:50.523Z,236.53
2022-11-13T15:48:36.580Z,237.23
2022-11-13T15:51:31.949Z,240.30
2022-11-13T15:54:25.524Z,238.30
2022-11-13T15:57:18.033Z,231.13
2022-11-13T16:00:04.691Z,223.63
2022-11-13T16:02:51.945Z,240.67
2022-11-13T16:05:38.095Z,209.73
2022-11-13T16:08:25.943Z,213.80
2022-11-13T16:11:15.597Z,206.83
2022-11-13T16:14:02.366Z,216.20
2022-11-13T16:16:50.511Z,223.17
2022-11-13T16:19:38.599Z,229.17
2022-11-13T16:22:26.919Z,217.20
2022-11-13T16:25:16.968Z,219.93
2022-11-13T16:28:03.235Z,214.47
2022-11-13T16:30:50.591Z,198.27
2022-11-13T16:33:36.765Z,219.67
2022-11-13T16:36:23.634Z,185.37
2022-11-13T16:39:15.665Z,213.07
2022-11-13T16:42:03.449Z,203.57
2022-11-13T16:44:49.588Z,198.00
2022-11-13T16:47:36.446Z,184.93
2022-11-13T16:50:24.558Z,193.87
2022-11-13T16:53:10.942Z,178.90
2022-11-13T16:55:57.501Z,173.00
2022-11-13T16:58:45.399Z,181.90
2022-11-13T17:01:31.941Z,175.17
2022-11-13T17:04:18.106Z,181.57
2022-11-13T17:07:04.609Z,170.20
2022-11-13T17:10:10.101Z,185.97
2022-11-13T17:12:57.052Z,165.70
2022-11-13T17:15:44.901Z,160.87
2022-11-13T17:18:31.374Z,169.23
2022-11-13T17:21:17.961Z,159.97
2022-11-13T17:24:04.717Z,174.33
2022-11-13T17:26:51.081Z,171.67
2022-11-13T17:29:38.525Z,166.13
2022-11-13T17:32:26.596Z,169.07
2022-11-13T17:35:13.220Z,166.80
2022-11-13T17:37:59.366Z,158.43
2022-11-13T17:40:45.762Z,168.07
2022-11-13T17:43:32.132Z,165.17
2022-11-13T17:46:19.019Z,171.97
2022-11-13T17:49:06.778Z,165.97
2022-11-13T17:51:52.836Z,152.90
2022-11-13T17:54:39.350Z,149.13
2022-11-13T17:57:27.068Z,162.70
2022-11-13T18:00:14.432Z,149.47
2022-11-13T18:03:00.609Z,162.00
2022-11-13T18:05:48.125Z,164.70
2022-11-13T18:08:35.163Z,145.33
2022-11-13T18:11:24.574Z,145.57
2022-11-13T18:14:10.734Z,151.80
2022-11-13T18:16:57.164Z,158.23
2022-11-13T18:19:43.441Z,150.57
2022-11-13T18:22:31.532Z,146.13
2022-11-13T18:25:18.127Z,143.83
2022-11-13T18:28:04.218Z,150.07
2022-11-13T18:30:56.114Z,148.27
2022-11-13T18:33:43.142Z,157.10
2022-11-13T18:36:31.586Z,138.73
2022-11-13T18:39:19.052Z,142.83
2022-11-13T18:42:05.343Z,146.37
2022-11-13T18:44:51.656Z,141.00
2022-11-13T18:47:37.921Z,149.13
2022-11-13T18:50:24.311Z,138.90
2022-11-13T18:53:10.575Z,148.27
2022-11-13T18:56:01.660Z,138.67
2022-11-13T18:58:48.963Z,137.27
2022-11-13T19:01:36.321Z,154.20
2022-11-13T19:04:23.989Z,138.47
2022-11-13T19:07:12.115Z,147.90
2022-11-13T19:09:58.555Z,144.53
2022-11-13T19:12:46.406Z,164.43
2022-11-13T19:15:34.023Z,156.63
2022-11-13T19:18:20.449Z,145.43
2022-11-13T19:21:08.078Z,153.87
2022-11-13T19:23:54.699Z,156.47
2022-11-13T19:26:41.566Z,158.37
2022-11-13T19:29:29.278Z,180.37
2022-11-13T19:32:15.810Z,154.53
2022-11-13T19:35:02.118Z,164.87
2022-11-13T19:37:48.601Z,157.97
2022-11-13T19:40:34.871Z,176.10
2022-11-13T19:43:21.347Z,174.00
2022-11-13T19:46:10.804Z,186.10
2022-11-13T19:48:57.032Z,177.77
2022-11-13T19:51:43.247Z,178.87
2022-11-13T19:54:29.490Z,184.03
2022-11-13T19:57:15.593Z,187.30
2022-11-13T20:00:01.667Z,166.43
2022-11-13T20:02:49.360Z,178.33
2022-11-13T20:05:35.848Z,177.70
2022-11-13T20:08:26.836Z,188.30
2022-11-13T20:11:15.052Z,172.53
2022-11-13T20:14:01.375Z,164.07
2022-11-13T20:16:47.522Z,180.70
2022-11-13T20:19:35.065Z,194.10
2022-11-13T20:22:21.625Z,181.53
2022-11-13T20:25:08.581Z,196.47
2022-11-13T20:27:55.117Z,192.90
2022-11-13T20:30:41.466Z,192.73
2022-11-13T20:33:27.690Z,190.57
2022-11-13T20:36:17.053Z,180.00
2022-11-13T20:39:12.277Z,178.13
2022-11-13T20:41:58.510Z,195.17
2022-11-13T20:44:44.592Z,193.57
2022-11-13T20:47:30.654Z,189.13
2022-11-13T20:50:17.013Z,205.97
2022-11-13T20:53:04.896Z,218.20
2022-11-13T20:55:51.285Z,215.73
2022-11-13T20:58:38.447Z,228.07
2022-11-13T21:01:26.767Z,240.37
2022-11-13T21:04:31.762Z,232.43
2022-11-13T21:07:38.274Z,232.77
2022-11-13T21:10:46.363Z,209.30
2022-11-13T21:13:55.287Z,211.27
2022-11-13T21:17:01.722Z,203.53
2022-11-13T21:20:09.551Z,205.13
2022-11-13T21:23:16.315Z,186.20
2022-11-13T21:26:24.639Z,186.23
2022-11-13T21:29:31.354Z,190.23
2022-11-13T21:32:39.051Z,192.23
2022-11-13T21:35:45.402Z,172.83
2022-11-13T21:38:53.242Z,163.80
2022-11-13T21:42:01.038Z,158.30
2022-11-13T21:45:08.405Z,160.97
2022-11-13T21:48:16.401Z,152.30
2022-11-13T21:51:23.166Z,146.43
2022-11-13T21:54:30.046Z,151.53
2022-11-13T21:57:37.754Z,149.60
2022-11-13T22:00:44.744Z,148.00
2022-11-13T22:03:51.799Z,142.33
2022-11-13T22:06:58.543Z,138.40
2022-11-13T22:10:08.505Z,140.77
2022-11-13T22:13:16.385Z,144.37
2022-11-13T22:16:23.744Z,129.97
2022-11-13T22:19:35.636Z,142.97
2022-11-13T22:22:42.876Z,136.43
2022-11-13T22:25:49.216Z,139.43
2022-11-13T22:28:57.753Z,138.33
2022-11-13T22:32:04.253Z,137.90
2022-11-13T22:35:10.687Z,118.23
2022-11-13T22:38:16.988Z,126.37
2022-11-13T22:41:25.187Z,121.90
2022-11-13T22:44:51.605Z,121.63
2022-11-13T22:47:59.126Z,113.20
2022-11-13T22:51:07.608Z,106.90
2022-11-13T22:54:14.283Z,112.27
2022-11-13T22:57:20.839Z,106.80
2022-11-13T23:00:28.507Z,101.20
2022-11-13T23:03:38.013Z,105.07
2022-11-13T23:06:44.501Z,108.67
2022-11-13T23:09:50.865Z,99.73
2022-11-13T23:12:57.159Z,103.43
2022-11-13T23:16:05.389Z,92.60
2022-11-13T23:19:12.411Z,104.63
2022-11-13T23:22:19.283Z,93.57
2022-11-13T23:25:26.022Z,90.17
2022-11-13T23:28:32.587Z,91.57
2022-11-13T23:31:40.433Z,95.73
2022-11-13T23:34:59.024Z,94.30
2022-11-13T23:38:06.248Z,94.77
2022-11-13T23:41:13.177Z,105.47
2022-11-13T23:44:19.684Z,98.07
2022-11-13T23:47:27.636Z,98.93
2022-11-13T23:50:34.347Z,108.07
2022-11-13T23:53:41.033Z,113.03
2022-11-13T23:56:47.387Z,110.63
2022-11-13T23:59:53.695Z,120.23
